Campos Verdes, Brazil
Current Conditions -  °F | °C
As of 11:00 AM on Saturday 25 Oct 2014 (Local Time) from SBAN Reporting Station
Broken Clouds Broken Clouds  
Wind Chill: 73°   Ceiling: 10000
Heat Index: 73°   Visibility: 6mi
Dew Point: 63°   Wind: 12mph
Humidity: 69%   Direction: 170°S
Pressure: 30.09"   Gusts: NA
Location:  14.26°S, 49.66°W
Report Text: SBAN 251300Z 17010KT 9999 FEW035 FEW040TCU BKN100 23/17 Q1019
Loading
Personal Weather Stations






























Interactive Weather Map
Tropical Storm Tracking
New forecast layout! Learn more

10-Day Weather Forecast

Advertisements
Track Severe Weather on mobile